Tokio, TX (79376)

10:46 PM CDT on June 01, 2015 (GMT -0500)
Seminole | | Change Station
CLOSE
Current Station
Airport
Location: Seminole,
Elevation: 3314 ft
Nearby Weather Stations

Elev 3314 ft 32.68 °N, 102.65 °W | Updated 11 minutes ago

Mostly Cloudy
Mostly Cloudy
72 °F
Feels Like 72 °F
N
8
Wind Variable Wind from SE

Today
High -- | Low -- °F
--% Chance of Precip.
Yesterday
High -- | Low -- °F
Precip. -- in
6:42 AM 8:54 PM
Full, 100% visible
Pressure 30.06 in
Visibility 10.0 miles
Clouds Clear
Dew Point 58 °F
Humidity 61%
Rainfall 0.00 in
Snow Depth Not available.
UV 0 out of 12
Pollen 5.10 out of 12
Air Quality Not available.
Flu Activity Local Activity
METAR KGNC 020335Z AUTO 14007KT 10SM CLR 23/15 A3006 RMK AO2 T02250146

More Conditions Fewer Conditions

Pressure 30.06 in
Visibility 10.0 miles
Clouds Clear
Dew Point 58 °F
Humidity 61%
Rainfall 0.00 in
Snow Depth Not available.
UV 0 out of 12
Pollen 5.10 out of 12
Air Quality Not available.
Flu Activity Local Activity
METAR KGNC 020335Z AUTO 14007KT 10SM CLR 23/15 A3006 RMK AO2 T02250146

More Conditions Fewer Conditions

Nowcast | as of 10:34 PM CDT on June 1, 2015

At 1030 PM...radar showed a weaken area of showers and thunderstorms across the southwest Texas Panhandle and northwest South Plains...with an outflow boundary several miles out ahead of the activity...both moving southeast around 25 mph. Wind gusts of 25 to 35 mph will be common behind the gust front. In addition to the gusty winds...the strongest storms will be capable of producing brief moderate to heavy rain...occasional cloud to ground lightning and perhaps small hail. This activity will affect locations in and around Dimmitt...Lazbuddie...Earth...Muleshoe... Farwell...Hart... Maple and Olton through 1130 PM. The general weakening trend is expected to continue through the late evening hours.

×

10-Day Weather Forecast

Almanac

Astronomy

Jun. 01, 2015 Rise Set
Actual Time
Civil Twilight
Nautical Twilight
Astronomical Twilight
Moon
Length of Visible Light
Length of Day
Tomorrow will be .
, % of the Moon is Illuminated

Today's Extremes

State Highs State Lows

Community

WunderPhotos

Upload Photos

1,825,883 photos uploaded!

WunderBlogs® & News

Nearby

Air Quality

  Air Quality AQ Index Pollutant
Not available.

Snow Depth

Station Depth Elevation

Earthquake Activity

City Distance Mag. Time & Date
Minimum magnitude displayed is 2.5.

Coastal Water Temperatures

Place Temperature

Stations

Nearby Weather Stations

Station Location Temp. Windchill Dew Point Humidity Wind Precip. Elev Updated Type